Time;durP1;ratioP1;P1;durP2;ratioP2;P2;SDS_P1;SDS_P2;PMS_P1;PMS_P2;Temp;Humidity;BMP_temperature;BMP_pressure;BME280_temperature;BME280_humidity;BME280_pressure;Samples;Min_cycle;Max_cycle;Signal;HPM_P1;HPM_P2
2021/03/12 00:02:01;;;;;;;4.97;3.80;;;7.20;99.90;;;;;;5121206;28;20224;-85
2021/03/12 00:04:27;;;;;;;8.25;3.25;;;7.20;99.90;;;;;;5120726;28;20748;-85
2021/03/12 00:06:53;;;;;;;5.82;3.53;;;7.10;99.90;;;;;;5121344;28;20197;-85
2021/03/12 00:09:20;;;;;;;5.97;3.38;;;7.20;99.90;;;;;;5129491;28;20215;-84
2021/03/12 00:11:46;;;;;;;3.70;3.35;;;7.10;99.90;;;;;;5136386;28;20225;-83
2021/03/12 00:14:13;;;;;;;6.13;3.50;;;7.10;99.90;;;;;;5133287;28;20197;-84
2021/03/12 00:16:39;;;;;;;3.22;3.03;;;7.10;99.90;;;;;;5126746;28;20539;-84
2021/03/12 00:19:05;;;;;;;5.65;3.60;;;7.20;99.90;;;;;;5125337;28;20595;-85
2021/03/12 00:21:31;;;;;;;4.10;3.40;;;;;;;;;;5125822;28;20239;-85
2021/03/12 00:23:57;;;;;;;4.47;3.92;;;7.20;99.90;;;;;;5126957;28;20197;-84
2021/03/12 00:26:24;;;;;;;7.28;3.60;;;7.20;99.90;;;;;;5127813;28;20224;-85
2021/03/12 00:28:51;;;;;;;12.70;7.03;;;7.20;99.90;;;;;;5127626;28;20192;-84
2021/03/12 00:31:17;;;;;;;4.47;3.13;;;7.20;99.90;;;;;;5125684;28;20682;-85
2021/03/12 00:33:43;;;;;;;4.35;2.85;;;6.70;99.90;;;;;;5124182;28;20197;-85
2021/03/12 00:36:09;;;;;;;3.65;3.35;;;7.20;99.90;;;;;;5122560;28;20181;-84
2021/03/12 00:38:35;;;;;;;6.55;3.67;;;7.20;99.90;;;;;;5122104;28;20216;-85
2021/03/12 00:41:04;;;;;;;3.75;3.15;;;7.10;99.90;;;;;;5122087;28;20228;-85
2021/03/12 00:43:32;;;;;;;5.90;3.45;;;6.90;99.90;;;;;;5123499;28;20209;-85
2021/03/12 00:46:03;;;;;;;4.00;2.35;;;7.20;99.90;;;;;;5134743;28;20189;-85
2021/03/12 00:48:30;;;;;;;3.40;2.20;;;7.20;99.90;;;;;;5136689;28;20192;-85
2021/03/12 00:50:57;;;;;;;2.88;2.30;;;7.30;99.90;;;;;;5135154;28;20229;-85
2021/03/12 00:53:24;;;;;;;5.63;2.75;;;7.30;99.90;;;;;;5134561;28;20215;-84
2021/03/12 00:55:51;;;;;;;5.65;2.30;;;7.30;99.90;;;;;;5131757;28;20651;-83
2021/03/12 00:58:18;;;;;;;3.25;2.70;;;7.30;99.90;;;;;;5131941;28;20221;-84
2021/03/12 01:00:45;;;;;;;3.25;2.90;;;7.30;99.90;;;;;;5128580;28;20294;-85
2021/03/12 01:03:11;;;;;;;5.32;2.30;;;7.30;99.90;;;;;;5123892;28;20234;-84
2021/03/12 01:05:37;;;;;;;3.40;2.72;;;7.30;99.90;;;;;;5127461;28;20201;-84
2021/03/12 01:08:04;;;;;;;4.70;2.50;;;7.30;99.90;;;;;;5133279;28;20201;-83
2021/03/12 01:10:31;;;;;;;4.97;2.50;;;7.10;99.90;;;;;;5130101;28;20663;-84
2021/03/12 01:12:57;;;;;;;5.13;2.47;;;7.30;99.90;;;;;;5124085;28;20218;-84
2021/03/12 01:15:25;;;;;;;4.57;2.33;;;7.30;99.90;;;;;;5121714;28;20216;-85
2021/03/12 01:17:53;;;;;;;2.30;2.10;;;7.30;99.90;;;;;;5123402;28;20231;-84
2021/03/12 01:20:21;;;;;;;3.28;2.83;;;7.20;99.90;;;;;;5123699;28;20201;-84
2021/03/12 01:22:48;;;;;;;4.82;2.35;;;7.10;99.90;;;;;;5126072;28;20231;-84
2021/03/12 01:25:18;;;;;;;7.63;3.75;;;7.10;99.90;;;;;;5126468;28;20196;-85
2021/03/12 01:27:44;;;;;;;2.05;1.95;;;7.00;99.90;;;;;;5123954;28;20201;-85
2021/03/12 01:30:16;;;;;;;4.68;1.98;;;6.90;99.90;;;;;;5123036;28;20205;-85
2021/03/12 01:32:42;;;;;;;2.33;2.15;;;6.90;99.90;;;;;;5122830;28;20587;-85
2021/03/12 01:35:10;;;;;;;4.60;2.00;;;6.80;99.90;;;;;;5122530;28;20212;-85
2021/03/12 01:37:36;;;;;;;2.47;2.10;;;6.90;99.90;;;;;;5123372;28;20586;-85
2021/03/12 01:40:04;;;;;;;4.80;2.10;;;6.90;99.90;;;;;;5126381;28;20208;-85
2021/03/12 01:42:30;;;;;;;4.35;2.70;;;6.90;99.90;;;;;;5126111;28;20237;-85
2021/03/12 01:44:56;;;;;;;3.03;2.40;;;6.90;99.90;;;;;;5127766;28;20201;-84
2021/03/12 01:47:22;;;;;;;2.47;2.28;;;6.80;99.90;;;;;;5129740;28;20201;-85
2021/03/12 01:49:48;;;;;;;2.78;2.58;;;6.90;99.90;;;;;;5132944;28;20205;-85
2021/03/12 01:52:15;;;;;;;3.33;2.70;;;6.80;99.90;;;;;;5132962;28;20221;-85
2021/03/12 01:54:42;;;;;;;6.97;3.53;;;6.80;99.90;;;;;;5132007;28;20205;-85
2021/03/12 01:57:08;;;;;;;4.18;3.65;;;6.80;99.90;;;;;;5131167;28;20201;-85
2021/03/12 01:59:35;;;;;;;5.05;3.53;;;6.80;99.90;;;;;;5129496;28;20208;-84
2021/03/12 02:02:01;;;;;;;8.45;4.20;;;6.70;99.90;;;;;;5130220;27;20237;-85
2021/03/12 02:04:27;;;;;;;4.82;2.85;;;6.50;99.90;;;;;;5130918;28;20209;-84
2021/03/12 02:06:53;;;;;;;7.20;3.17;;;6.80;99.90;;;;;;5130722;28;20253;-84
2021/03/12 02:09:21;;;;;;;3.00;2.70;;;6.70;99.90;;;;;;5133095;28;20193;-84
2021/03/12 02:11:58;;;;;;;3.00;2.63;;;6.50;99.90;;;;;;5135074;28;20232;-84
2021/03/12 02:14:33;;;;;;;2.80;2.60;;;6.70;99.90;;;;;;5137928;28;20196;-84
2021/03/12 02:17:06;;;;;;;2.95;2.65;;;6.20;99.90;;;;;;5138316;28;20201;-84
2021/03/12 02:19:48;;;;;;;3.55;2.72;;;6.10;99.90;;;;;;5134573;28;20188;-85
2021/03/12 02:22:17;;;;;;;5.25;2.95;;;6.10;99.90;;;;;;5133914;28;20220;-84
2021/03/12 02:24:52;;;;;;;3.05;2.65;;;6.10;99.90;;;;;;5136524;28;20219;-84
2021/03/12 02:27:20;;;;;;;3.15;2.88;;;6.10;99.90;;;;;;5134201;28;20684;-84
2021/03/12 02:29:51;;;;;;;3.85;2.53;;;6.10;99.90;;;;;;5127329;28;20230;-84
2021/03/12 02:32:21;;;;;;;3.85;2.50;;;6.10;99.90;;;;;;5126150;28;20675;-84
2021/03/12 02:34:48;;;;;;;3.20;2.90;;;6.10;99.90;;;;;;5139458;28;20197;-85
2021/03/12 02:37:17;;;;;;;2.97;2.70;;;6.10;99.90;;;;;;5139819;28;20205;-85
2021/03/12 02:39:47;;;;;;;5.68;3.00;;;6.00;99.90;;;;;;5140566;28;20181;-84
2021/03/12 02:42:14;;;;;;;3.55;2.67;;;6.00;99.90;;;;;;5139033;28;20225;-84
2021/03/12 02:44:46;;;;;;;3.67;2.35;;;6.00;99.90;;;;;;5139378;28;20264;-84
2021/03/12 02:47:16;;;;;;;4.55;2.40;;;5.90;99.90;;;;;;5140607;28;20185;-85
2021/03/12 02:49:43;;;;;;;4.07;2.70;;;5.90;99.90;;;;;;5125073;28;20235;-84
2021/03/12 02:52:10;;;;;;;5.65;2.88;;;5.80;99.90;;;;;;5135136;28;20236;-84
2021/03/12 02:54:36;;;;;;;3.25;2.22;;;5.50;99.90;;;;;;5124268;28;20205;-85
2021/03/12 02:57:03;;;;;;;4.28;2.88;;;5.80;99.90;;;;;;5124713;28;20208;-85
2021/03/12 02:59:30;;;;;;;5.55;2.55;;;5.90;99.90;;;;;;5123841;28;20221;-85
2021/03/12 03:01:57;;;;;;;5.38;2.90;;;5.90;99.90;;;;;;5122934;28;20274;-85
2021/03/12 03:04:24;;;;;;;3.40;2.72;;;5.90;99.90;;;;;;5122496;28;20208;-85
2021/03/12 03:06:51;;;;;;;2.95;2.75;;;5.80;99.90;;;;;;5122951;28;20205;-85
2021/03/12 03:09:19;;;;;;;5.50;3.15;;;5.80;99.90;;;;;;5121170;28;20540;-85
2021/03/12 03:11:46;;;;;;;5.05;2.30;;;5.70;99.90;;;;;;5120664;28;20221;-85
2021/03/12 03:14:15;;;;;;;4.93;2.15;;;5.70;99.90;;;;;;5121660;27;20205;-85
2021/03/12 03:16:44;;;;;;;2.75;1.85;;;5.70;99.90;;;;;;5121654;28;20197;-85
2021/03/12 03:19:13;;;;;;;2.50;1.90;;;5.70;99.90;;;;;;5120808;28;20213;-85
2021/03/12 03:21:42;;;;;;;1.60;1.50;;;5.70;99.90;;;;;;5134619;27;20242;-84
2021/03/12 03:24:08;;;;;;;3.33;1.98;;;5.70;99.90;;;;;;5136064;28;20231;-84
2021/03/12 03:26:36;;;;;;;3.65;1.60;;;5.60;99.90;;;;;;5130441;28;20227;-85
2021/03/12 03:29:03;;;;;;;3.10;1.65;;;5.70;99.90;;;;;;5128832;27;20204;-85
2021/03/12 03:31:29;;;;;;;4.95;1.77;;;5.70;99.90;;;;;;5127507;28;20232;-85
2021/03/12 03:33:55;;;;;;;5.15;1.30;;;5.70;99.90;;;;;;5124568;28;20243;-84
2021/03/12 03:36:22;;;;;;;3.67;1.58;;;5.60;99.90;;;;;;5124302;28;20209;-85
2021/03/12 03:38:49;;;;;;;2.03;1.50;;;5.60;99.90;;;;;;5124353;28;20216;-84
2021/03/12 03:41:17;;;;;;;3.20;1.33;;;5.60;99.90;;;;;;5123689;28;20233;-85
2021/03/12 03:43:49;;;;;;;4.82;1.58;;;5.70;99.90;;;;;;5123241;28;20208;-85
2021/03/12 03:46:17;;;;;;;3.03;1.25;;;5.70;99.90;;;;;;5123640;28;20217;-85
2021/03/12 03:48:44;;;;;;;6.70;1.90;;;5.70;99.90;;;;;;5122083;28;20253;-85
2021/03/12 03:51:14;;;;;;;1.80;1.65;;;5.90;99.90;;;;;;5122134;28;20240;-84
2021/03/12 03:53:42;;;;;;;2.40;2.20;;;5.70;99.90;;;;;;5122878;28;20197;-85
2021/03/12 03:56:10;;;;;;;2.72;1.98;;;5.70;99.90;;;;;;5122651;28;20227;-84
2021/03/12 03:58:38;;;;;;;5.32;1.90;;;5.40;99.90;;;;;;5123142;28;20221;-85
2021/03/12 04:01:06;;;;;;;4.45;1.50;;;5.70;99.90;;;;;;5122970;28;20217;-85
2021/03/12 04:03:33;;;;;;;3.30;1.40;;;5.70;99.90;;;;;;5121710;28;20435;-84
2021/03/12 04:06:00;;;;;;;3.03;1.55;;;5.80;99.90;;;;;;5121084;28;20474;-85
2021/03/12 04:08:27;;;;;;;2.17;1.63;;;5.70;99.90;;;;;;5122960;28;20553;-85
2021/03/12 04:10:56;;;;;;;2.95;1.60;;;5.70;99.90;;;;;;5121709;28;20221;-85
2021/03/12 04:13:24;;;;;;;7.35;2.15;;;5.70;99.90;;;;;;5121955;28;20207;-85
2021/03/12 04:15:51;;;;;;;1.85;1.70;;;5.70;99.90;;;;;;5122073;28;20196;-85
2021/03/12 04:18:17;;;;;;;1.45;1.35;;;5.60;99.90;;;;;;5120214;28;20270;-85
2021/03/12 04:20:43;;;;;;;2.40;1.35;;;5.70;99.90;;;;;;5121866;28;20216;-85
2021/03/12 04:23:10;;;;;;;1.70;1.60;;;5.60;99.90;;;;;;5122045;28;20209;-85
2021/03/12 04:25:37;;;;;;;4.15;1.88;;;5.60;99.90;;;;;;5123545;28;20217;-85
2021/03/12 04:28:05;;;;;;;3.53;1.42;;;5.60;99.90;;;;;;5125294;28;20204;-84
2021/03/12 04:30:31;;;;;;;2.05;1.70;;;5.80;99.90;;;;;;5132312;28;20644;-84
2021/03/12 04:32:58;;;;;;;3.33;1.90;;;5.60;99.90;;;;;;5127533;28;20453;-84
2021/03/12 04:35:25;;;;;;;4.03;1.98;;;5.50;99.90;;;;;;5124900;28;20241;-84
2021/03/12 04:37:52;;;;;;;3.17;1.60;;;5.60;99.90;;;;;;5127593;28;20216;-84
2021/03/12 04:40:19;;;;;;;3.05;2.00;;;5.60;99.90;;;;;;5133138;28;20208;-84
2021/03/12 04:42:46;;;;;;;2.67;1.98;;;5.60;99.90;;;;;;5130088;28;20220;-84
2021/03/12 04:45:14;;;;;;;2.55;1.65;;;5.60;99.90;;;;;;5127141;28;20212;-84
2021/03/12 04:47:41;;;;;;;2.47;1.75;;;5.60;99.90;;;;;;5132348;28;20201;-85
2021/03/12 04:50:10;;;;;;;3.38;1.90;;;5.60;99.90;;;;;;5134222;28;20201;-83
2021/03/12 04:52:37;;;;;;;1.92;1.77;;;5.60;99.90;;;;;;5127033;28;20280;-84
2021/03/12 04:55:04;;;;;;;2.25;2.05;;;5.60;99.90;;;;;;5126746;28;20201;-84
2021/03/12 04:57:31;;;;;;;4.45;1.98;;;5.70;99.90;;;;;;5128686;28;20254;-84
2021/03/12 04:59:57;;;;;;;3.45;2.50;;;5.60;99.90;;;;;;5125053;28;20197;-84
2021/03/12 05:02:25;;;;;;;4.00;2.50;;;5.70;99.90;;;;;;5123731;28;20302;-85
2021/03/12 05:04:52;;;;;;;2.20;1.58;;;5.70;99.90;;;;;;5129615;28;20200;-85
2021/03/12 05:07:20;;;;;;;1.80;1.70;;;5.70;99.90;;;;;;5138443;28;20207;-84
2021/03/12 05:09:46;;;;;;;4.05;2.35;;;5.60;99.90;;;;;;5138338;28;20196;-84
2021/03/12 05:12:14;;;;;;;5.97;3.10;;;5.60;99.90;;;;;;5137810;28;20246;-84
2021/03/12 05:14:40;;;;;;;4.00;2.50;;;5.60;99.90;;;;;;5136269;28;20439;-84
2021/03/12 05:17:06;;;;;;;3.67;2.90;;;5.60;99.90;;;;;;5124184;28;20200;-84
2021/03/12 05:19:33;;;;;;;3.28;2.25;;;5.60;99.90;;;;;;5124770;28;20224;-84
2021/03/12 05:22:00;;;;;;;4.15;3.00;;;5.40;99.90;;;;;;5123273;28;20710;-85
2021/03/12 05:24:26;;;;;;;4.68;2.97;;;5.60;99.90;;;;;;5123482;28;20736;-85
2021/03/12 05:26:53;;;;;;;3.60;2.65;;;5.60;99.90;;;;;;5123833;28;20216;-84
2021/03/12 05:29:19;;;;;;;2.42;2.25;;;5.60;99.90;;;;;;5123756;28;20201;-84
2021/03/12 05:31:45;;;;;;;4.70;3.25;;;5.50;99.90;;;;;;5124174;28;20695;-85
2021/03/12 05:34:11;;;;;;;3.08;2.58;;;5.40;99.90;;;;;;5124898;28;20205;-84
2021/03/12 05:36:38;;;;;;;4.50;3.70;;;5.50;99.90;;;;;;5124490;28;20759;-85
2021/03/12 05:39:05;;;;;;;3.70;2.53;;;5.50;99.90;;;;;;5124440;28;20225;-84
2021/03/12 05:44:03;;;;;;;3.45;3.03;;;5.50;99.90;;;;;;5090791;28;20225;-80
2021/03/12 05:46:30;;;;;;;7.40;4.13;;;5.50;99.90;;;;;;5096642;28;20194;-79
2021/03/12 05:48:57;;;;;;;4.10;3.47;;;5.50;99.90;;;;;;5096863;28;20199;-79
2021/03/12 05:51:24;;;;;;;4.65;3.47;;;5.60;99.90;;;;;;5089594;28;20223;-79
2021/03/12 05:53:51;;;;;;;6.03;3.80;;;5.50;99.90;;;;;;5081391;28;20251;-80
2021/03/12 05:56:17;;;;;;;4.32;3.65;;;5.60;99.90;;;;;;5079842;28;20202;-79
2021/03/12 05:58:43;;;;;;;3.95;3.55;;;5.60;99.90;;;;;;5078833;28;20313;-81
2021/03/12 06:01:09;;;;;;;5.80;3.38;;;5.30;99.90;;;;;;5080031;28;20194;-79
2021/03/12 06:03:36;;;;;;;3.08;2.85;;;5.60;99.90;;;;;;5079971;28;20202;-79
2021/03/12 06:06:04;;;;;;;5.88;3.80;;;5.60;99.90;;;;;;5080262;28;20226;-79
2021/03/12 06:08:31;;;;;;;8.25;4.10;;;5.70;99.90;;;;;;5079722;28;20195;-79
2021/03/12 06:10:59;;;;;;;5.60;3.00;;;5.40;99.90;;;;;;5079846;28;20234;-79
2021/03/12 06:13:25;;;;;;;3.78;3.38;;;5.50;99.90;;;;;;5079773;28;20214;-79
2021/03/12 06:15:51;;;;;;;5.65;3.33;;;5.60;99.90;;;;;;5082858;28;20226;-80
2021/03/12 06:18:21;;;;;;;4.10;3.08;;;5.60;99.90;;;;;;5090238;28;20708;-80
2021/03/12 06:20:47;;;;;;;6.55;3.20;;;5.60;99.90;;;;;;5081423;28;20212;-79
2021/03/12 06:23:31;;;;;;;4.45;3.05;;;5.60;99.90;;;;;;5078506;28;20841;-79
2021/03/12 06:25:58;;;;;;;3.97;3.60;;;5.60;99.90;;;;;;5079011;28;20189;-78
2021/03/12 06:28:24;;;;;;;3.22;3.03;;;5.60;99.90;;;;;;5098078;28;20202;-78
2021/03/12 06:30:50;;;;;;;3.72;3.22;;;5.60;99.90;;;;;;5081236;28;20209;-80
2021/03/12 06:33:27;;;;;;;4.57;3.58;;;5.60;99.90;;;;;;5078817;28;20623;-80
2021/03/12 06:35:54;;;;;;;4.97;3.55;;;5.70;99.90;;;;;;5079788;28;20212;-81
2021/03/12 06:38:21;;;;;;;3.45;3.05;;;5.70;99.90;;;;;;5079680;28;20222;-79
2021/03/12 06:40:47;;;;;;;4.45;3.35;;;5.70;99.90;;;;;;5079275;28;20259;-81
2021/03/12 06:43:15;;;;;;;4.38;3.65;;;5.70;99.90;;;;;;5078677;28;20256;-81
2021/03/12 06:45:59;;;;;;;8.73;5.03;;;5.60;99.90;;;;;;5080255;28;20257;-81
2021/03/12 06:48:26;;;;;;;4.47;4.07;;;5.50;99.90;;;;;;5078897;28;20240;-81
2021/03/12 06:50:54;;;;;;;8.05;4.40;;;5.50;99.90;;;;;;5078507;28;20661;-80
2021/03/12 06:53:31;;;;;;;8.70;4.50;;;5.40;99.90;;;;;;5079660;28;20206;-80
2021/03/12 06:55:59;;;;;;;6.68;4.80;;;5.50;99.90;;;;;;5083483;28;20208;-78
2021/03/12 06:58:27;;;;;;;6.63;4.80;;;5.50;99.90;;;;;;5097611;28;20206;-79
2021/03/12 07:00:54;;;;;;;9.25;5.25;;;5.40;99.90;;;;;;5095390;28;20209;-80
2021/03/12 07:03:26;;;;;;;6.40;4.97;;;5.40;99.90;;;;;;5094662;28;20206;-80
2021/03/12 07:05:57;;;;;;;6.28;5.10;;;5.40;99.90;;;;;;5085893;28;20564;-80
2021/03/12 07:08:36;;;;;;;6.90;5.25;;;5.40;99.90;;;;;;5078849;28;20190;-80
2021/03/12 07:11:15;;;;;;;5.75;4.63;;;5.60;99.90;;;;;;5079947;28;20183;-80
2021/03/12 07:13:42;;;;;;;7.00;4.70;;;5.60;99.90;;;;;;5079605;28;20193;-80
2021/03/12 07:16:09;;;;;;;12.05;6.50;;;5.60;99.90;;;;;;5081160;28;20202;-80
2021/03/12 07:18:36;;;;;;;9.77;6.38;;;5.70;99.90;;;;;;5080080;28;20703;-80
2021/03/12 07:21:04;;;;;;;7.68;5.75;;;5.70;99.90;;;;;;5078850;28;20688;-79
2021/03/12 07:23:33;;;;;;;7.95;5.95;;;5.80;99.90;;;;;;5077403;28;20232;-80
2021/03/12 07:25:59;;;;;;;8.00;5.72;;;5.90;99.90;;;;;;5077693;28;20198;-80
2021/03/12 07:28:27;;;;;;;5.43;4.55;;;5.90;99.90;;;;;;5077244;28;20194;-80
2021/03/12 07:30:55;;;;;;;12.38;5.43;;;6.20;99.90;;;;;;5076753;28;20197;-80
2021/03/12 07:33:25;;;;;;;8.05;5.63;;;6.10;99.90;;;;;;5077457;28;20610;-80
2021/03/12 07:35:53;;;;;;;7.75;5.30;;;6.10;99.90;;;;;;5077272;28;20187;-79
2021/03/12 07:38:20;;;;;;;13.82;5.68;;;6.30;99.90;;;;;;5079008;28;20283;-80
2021/03/12 07:40:47;;;;;;;7.03;5.25;;;6.20;99.90;;;;;;5078187;28;20210;-84
2021/03/12 07:43:14;;;;;;;12.38;5.38;;;6.20;99.90;;;;;;5078172;28;20230;-79
2021/03/12 07:45:42;;;;;;;6.80;4.85;;;6.20;99.90;;;;;;5079155;28;20233;-80
2021/03/12 07:48:10;;;;;;;6.80;4.95;;;6.20;99.90;;;;;;5077344;28;20198;-79
2021/03/12 07:50:38;;;;;;;6.22;4.95;;;6.40;99.90;;;;;;5078419;28;20238;-79
2021/03/12 07:53:05;;;;;;;6.60;4.93;;;6.40;99.90;;;;;;5079163;28;20650;-79
2021/03/12 07:55:51;;;;;;;6.22;4.57;;;6.30;99.90;;;;;;5081582;28;20206;-81
2021/03/12 07:58:48;;;;;;;10.93;5.43;;;6.40;99.90;;;;;;5094390;28;20313;-80
2021/03/12 08:01:15;;;;;;;8.00;5.13;;;6.30;99.90;;;;;;5095179;28;20232;-80
2021/03/12 08:03:42;;;;;;;7.32;4.68;;;6.30;99.90;;;;;;5090616;28;20260;-81
2021/03/12 08:06:34;;;;;;;8.15;5.05;;;6.30;99.90;;;;;;5084054;28;20266;-80
2021/03/12 08:09:00;;;;;;;6.65;4.55;;;6.30;99.90;;;;;;5081014;28;20209;-80
2021/03/12 08:11:32;;;;;;;8.80;4.95;;;6.40;99.90;;;;;;5079368;28;20226;-79
2021/03/12 08:14:18;;;;;;;7.60;5.78;;;6.40;99.90;;;;;;5078484;28;20189;-80
2021/03/12 08:17:19;;;;;;;6.68;4.47;;;6.40;99.90;;;;;;5079548;28;20691;-79
2021/03/12 08:19:49;;;;;;;6.18;4.93;;;6.50;99.90;;;;;;5077999;28;20228;-81
2021/03/12 08:22:42;;;;;;;6.53;4.70;;;6.80;99.90;;;;;;5078695;28;20261;-81
2021/03/12 08:25:10;;;;;;;7.78;5.57;;;6.70;99.90;;;;;;5079533;28;20230;-79
2021/03/12 08:27:42;;;;;;;6.88;4.80;;;6.80;99.90;;;;;;5080426;28;20232;-80
2021/03/12 08:30:11;;;;;;;5.68;5.03;;;6.70;99.90;;;;;;5080448;28;20191;-79
2021/03/12 08:32:44;;;;;;;4.57;4.18;;;6.80;99.90;;;;;;5080661;28;20229;-80
2021/03/12 08:35:38;;;;;;;9.40;4.60;;;6.80;99.90;;;;;;5084177;28;20213;-78
2021/03/12 08:38:06;;;;;;;8.80;5.25;;;6.70;99.90;;;;;;5094913;28;20248;-81
2021/03/12 08:40:33;;;;;;;7.40;5.15;;;6.60;99.90;;;;;;5090298;28;20206;-79
2021/03/12 08:43:01;;;;;;;7.90;4.82;;;6.70;99.90;;;;;;5081025;28;20759;-80
2021/03/12 08:45:35;;;;;;;6.80;4.97;;;6.70;99.90;;;;;;5080973;28;20820;-80
2021/03/12 08:48:03;;;;;;;8.73;5.22;;;6.80;99.90;;;;;;5079438;28;20193;-80
2021/03/12 08:50:29;;;;;;;7.82;5.57;;;6.90;99.90;;;;;;5080095;28;20205;-80
2021/03/12 08:52:57;;;;;;;6.53;4.30;;;6.80;99.90;;;;;;5083441;28;20218;-79
2021/03/12 08:55:23;;;;;;;6.25;4.75;;;6.80;99.90;;;;;;5085447;28;20206;-79
2021/03/12 08:57:51;;;;;;;6.57;4.30;;;6.80;99.90;;;;;;5093613;28;20190;-78
2021/03/12 09:00:17;;;;;;;13.07;4.85;;;6.80;99.90;;;;;;5094176;28;20217;-78
2021/03/12 09:02:44;;;;;;;5.90;4.63;;;6.90;99.90;;;;;;5094889;28;20230;-80
2021/03/12 09:05:27;;;;;;;7.03;5.22;;;6.90;99.90;;;;;;5094040;28;20186;-79
2021/03/12 09:07:55;;;;;;;8.95;4.68;;;7.00;99.90;;;;;;5096561;28;20183;-78
2021/03/12 09:10:27;;;;;;;9.50;5.15;;;7.00;99.90;;;;;;5094082;28;20202;-78
2021/03/12 09:12:53;;;;;;;7.60;5.15;;;7.00;99.90;;;;;;5090444;28;20279;-77
2021/03/12 09:15:23;;;;;;;8.88;4.80;;;6.90;99.90;;;;;;5093600;28;20213;-78
2021/03/12 09:17:49;;;;;;;8.38;4.88;;;6.90;99.90;;;;;;5087746;28;20202;-79
2021/03/12 09:20:22;;;;;;;11.73;4.97;;;7.00;99.90;;;;;;5080302;28;20295;-80
2021/03/12 09:22:53;;;;;;;4.78;4.30;;;7.00;99.90;;;;;;5079330;28;20770;-79
2021/03/12 09:25:29;;;;;;;6.13;5.60;;;6.80;99.90;;;;;;5080467;28;20228;-79
2021/03/12 09:28:04;;;;;;;8.50;5.55;;;7.00;99.90;;;;;;5081331;28;20212;-79
2021/03/12 09:30:33;;;;;;;5.57;5.00;;;7.20;99.90;;;;;;5081513;28;20186;-81
2021/03/12 09:32:59;;;;;;;7.57;4.90;;;7.40;99.90;;;;;;5080226;28;20222;-78
2021/03/12 09:35:29;;;;;;;8.77;5.38;;;7.20;99.90;;;;;;5082510;28;20198;-81
2021/03/12 09:37:57;;;;;;;7.47;5.05;;;7.30;99.90;;;;;;5083210;28;20186;-80
2021/03/12 09:40:38;;;;;;;6.90;5.80;;;7.60;99.90;;;;;;5081485;28;20213;-81
2021/03/12 09:43:06;;;;;;;7.03;4.95;;;7.70;99.90;;;;;;5077990;28;20329;-81
2021/03/12 09:45:33;;;;;;;9.10;5.45;;;7.80;99.90;;;;;;5077128;28;20198;-80
2021/03/12 09:47:59;;;;;;;5.63;4.45;;;8.00;99.90;;;;;;5076790;28;20209;-81
2021/03/12 09:50:25;;;;;;;12.40;5.15;;;8.00;99.90;;;;;;5077601;28;20260;-79
2021/03/12 09:52:54;;;;;;;8.95;3.90;;;8.10;99.90;;;;;;5077773;28;20237;-79
2021/03/12 09:55:21;;;;;;;8.13;5.03;;;8.10;99.90;;;;;;5077066;28;20237;-79
2021/03/12 09:57:48;;;;;;;8.77;4.22;;;8.10;99.90;;;;;;5077193;28;20214;-79
2021/03/12 10:00:25;;;;;;;6.57;3.97;;;8.00;99.90;;;;;;5078685;28;20199;-79
2021/03/12 10:02:53;;;;;;;7.45;4.30;;;8.00;99.90;;;;;;5080536;28;20221;-80
2021/03/12 10:05:20;;;;;;;6.90;4.40;;;7.90;99.90;;;;;;5080018;28;20313;-81
2021/03/12 10:07:47;;;;;;;4.82;4.40;;;8.10;99.90;;;;;;5079849;28;20448;-80
2021/03/12 10:10:25;;;;;;;11.52;4.50;;;8.20;99.90;;;;;;5080419;28;20676;-79
2021/03/12 10:12:55;;;;;;;5.75;3.78;;;8.10;99.90;;;;;;5079563;28;20222;-80
2021/03/12 10:15:22;;;;;;;5.35;4.85;;;8.20;99.90;;;;;;5080401;28;20612;-79
2021/03/12 10:17:50;;;;;;;6.23;3.90;;;8.40;99.90;;;;;;5090551;28;20194;-80
2021/03/12 10:20:26;;;;;;;4.93;3.60;;;8.40;99.90;;;;;;5096329;28;20411;-79
2021/03/12 10:22:54;;;;;;;4.72;3.58;;;8.20;99.90;;;;;;5095771;28;20419;-82
2021/03/12 10:25:23;;;;;;;11.23;3.92;;;8.10;99.90;;;;;;5090767;28;20210;-79
2021/03/12 10:27:52;;;;;;;3.87;3.47;;;8.30;99.90;;;;;;5093218;28;20202;-80
2021/03/12 10:30:21;;;;;;;4.78;3.63;;;8.40;99.90;;;;;;5095629;28;20399;-80
2021/03/12 10:32:50;;;;;;;6.72;3.70;;;8.30;99.90;;;;;;5095794;28;20226;-80
2021/03/12 10:35:26;;;;;;;4.13;2.85;;;8.10;99.90;;;;;;5091983;28;20213;-80
2021/03/12 10:37:54;;;;;;;7.07;3.63;;;8.00;99.90;;;;;;5079852;28;20190;-79
2021/03/12 10:40:21;;;;;;;6.70;3.45;;;8.10;99.90;;;;;;5080106;28;20221;-80
2021/03/12 10:42:47;;;;;;;5.85;3.20;;;8.30;99.90;;;;;;5080170;28;20607;-80
2021/03/12 10:45:26;;;;;;;7.97;3.35;;;8.30;99.90;;;;;;5080202;28;20202;-79
2021/03/12 10:47:57;;;;;;;5.78;3.63;;;8.30;99.90;;;;;;5080808;28;20629;-78
2021/03/12 10:50:24;;;;;;;6.30;3.20;;;8.50;99.90;;;;;;5090675;28;20198;-79
2021/03/12 10:52:51;;;;;;;4.72;2.75;;;8.40;99.90;;;;;;5093716;28;20222;-78
2021/03/12 10:55:18;;;;;;;3.30;3.00;;;8.40;99.90;;;;;;5091284;28;20206;-79
2021/03/12 10:57:46;;;;;;;3.28;2.95;;;8.50;99.90;;;;;;5094204;28;20214;-78
2021/03/12 11:00:19;;;;;;;4.65;3.38;;;8.60;99.90;;;;;;5094311;28;20231;-78
2021/03/12 11:02:47;;;;;;;3.95;3.55;;;8.60;99.90;;;;;;5094901;28;20226;-78
2021/03/12 11:05:16;;;;;;;8.20;4.38;;;8.50;99.90;;;;;;5091794;28;20209;-77
2021/03/12 11:07:42;;;;;;;6.65;3.45;;;8.60;99.90;;;;;;5091182;28;20234;-77
2021/03/12 11:10:09;;;;;;;4.80;3.30;;;8.80;99.90;;;;;;5090211;28;20209;-78
2021/03/12 11:12:38;;;;;;;5.00;3.30;;;8.80;99.90;;;;;;5090982;28;20495;-79
2021/03/12 11:15:06;;;;;;;5.70;4.17;;;8.90;99.90;;;;;;5090258;28;20456;-78
2021/03/12 11:17:32;;;;;;;4.38;3.47;;;8.80;99.90;;;;;;5089615;28;20452;-80
2021/03/12 11:19:59;;;;;;;10.98;3.40;;;8.80;99.90;;;;;;5092122;28;20218;-80
2021/03/12 11:22:26;;;;;;;7.50;4.22;;;8.70;99.90;;;;;;5092255;28;20231;-78
2021/03/12 11:24:52;;;;;;;4.97;4.50;;;8.80;99.90;;;;;;5092531;28;20210;-78
2021/03/12 11:27:18;;;;;;;9.87;4.47;;;8.70;99.90;;;;;;5093931;28;20440;-79
2021/03/12 11:29:45;;;;;;;5.07;4.00;;;8.80;99.90;;;;;;5093678;28;20449;-80
2021/03/12 11:32:11;;;;;;;9.13;3.90;;;9.10;99.90;;;;;;5089614;28;20218;-79
2021/03/12 11:34:37;;;;;;;10.52;7.80;;;8.90;99.90;;;;;;5090619;28;20452;-78
2021/03/12 11:37:08;;;;;;;5.68;3.90;;;9.10;99.90;;;;;;5088809;28;20211;-77
2021/03/12 11:39:35;;;;;;;4.63;4.17;;;9.00;99.90;;;;;;5090538;28;20240;-79
2021/03/12 11:44:31;;;;;;;8.33;4.43;;;9.50;99.90;;;;;;5102936;28;20464;-85
2021/03/12 11:46:57;;;;;;;5.87;4.03;;;9.60;99.90;;;;;;5113536;28;20478;-85
2021/03/12 11:49:23;;;;;;;5.50;4.30;;;9.80;99.90;;;;;;5116258;28;20416;-85
2021/03/12 11:51:52;;;;;;;12.93;4.90;;;9.80;99.90;;;;;;5118316;28;20436;-85
2021/03/12 11:54:20;;;;;;;7.20;4.23;;;9.80;99.90;;;;;;5098286;28;20444;-85
2021/03/12 11:56:46;;;;;;;5.70;4.13;;;9.80;99.90;;;;;;5096916;28;20468;-85
2021/03/12 11:59:12;;;;;;;6.17;3.67;;;9.80;99.90;;;;;;5097012;28;20472;-84
2021/03/12 12:01:38;;;;;;;6.00;4.60;;;9.80;99.90;;;;;;5094589;28;20449;-85
2021/03/12 12:04:05;;;;;;;5.50;4.30;;;9.70;99.90;;;;;;5095059;28;20465;-85
2021/03/12 12:06:31;;;;;;;4.77;4.10;;;9.70;99.90;;;;;;5093174;28;20433;-87
2021/03/12 12:08:57;;;;;;;4.20;3.80;;;9.70;99.90;;;;;;5088391;28;20452;-86
2021/03/12 12:11:24;;;;;;;4.47;4.07;;;9.80;99.90;;;;;;5092452;28;20441;-86
2021/03/12 12:13:51;;;;;;;9.50;4.73;;;9.40;99.90;;;;;;5088509;28;20439;-87
2021/03/12 12:16:19;;;;;;;7.83;4.77;;;9.70;99.90;;;;;;5088291;28;20452;-86
2021/03/12 12:18:46;;;;;;;9.17;4.40;;;10.00;99.90;;;;;;5086938;28;20487;-86
2021/03/12 12:21:14;;;;;;;4.63;3.87;;;10.00;99.90;;;;;;5087980;28;20463;-86
2021/03/12 12:23:42;;;;;;;6.77;4.47;;;10.40;99.90;;;;;;5090333;28;20497;-85
2021/03/12 12:26:08;;;;;;;8.73;4.00;;;10.20;99.90;;;;;;5091864;28;20451;-84
2021/03/12 12:28:36;;;;;;;6.00;3.93;;;10.20;99.90;;;;;;5091501;28;20421;-86
2021/03/12 12:31:03;;;;;;;5.43;4.10;;;10.10;99.90;;;;;;5092412;28;20433;-85
2021/03/12 12:33:30;;;;;;;6.73;3.80;;;10.00;99.90;;;;;;5092274;28;20449;-86
2021/03/12 12:35:56;;;;;;;6.50;3.80;;;9.60;99.90;;;;;;5092626;28;20455;-85
2021/03/12 12:38:23;;;;;;;13.63;5.00;;;9.80;99.90;;;;;;5095209;28;20446;-85
2021/03/12 12:40:49;;;;;;;4.17;3.13;;;9.90;99.90;;;;;;5092976;28;20432;-86
2021/03/12 12:43:16;;;;;;;5.53;3.33;;;9.80;99.90;;;;;;5092649;28;20476;-86
2021/03/12 12:45:43;;;;;;;5.17;3.53;;;9.70;99.90;;;;;;5092375;28;20459;-85
2021/03/12 12:48:10;;;;;;;8.60;3.07;;;9.80;99.90;;;;;;5087274;28;20426;-86
2021/03/12 12:50:36;;;;;;;4.87;4.07;;;9.80;99.90;;;;;;5080118;28;20447;-86
2021/03/12 12:53:02;;;;;;;6.70;3.10;;;9.90;99.90;;;;;;5080338;28;20514;-85
2021/03/12 12:55:28;;;;;;;6.40;3.13;;;10.00;99.90;;;;;;5080852;28;20814;-86
2021/03/12 12:57:54;;;;;;;6.77;3.53;;;9.90;99.90;;;;;;5078020;28;20464;-86
2021/03/12 13:00:22;;;;;;;9.30;4.00;;;10.00;99.90;;;;;;5077824;28;20478;-86
2021/03/12 13:02:49;;;;;;;5.33;3.37;;;10.00;99.90;;;;;;5080657;28;20472;-85
2021/03/12 13:05:15;;;;;;;5.93;3.23;;;10.20;99.90;;;;;;5080975;28;20501;-85
2021/03/12 13:07:41;;;;;;;6.60;3.30;;;10.20;99.90;;;;;;5081669;28;20426;-85